sensor_id;sensor_type;location;lat;lon;timestamp;P1;durP1;ratioP1;P2;durP2;ratioP2
75552;SDS011;64136;53.118;17.996;2023-06-26T00:00:19;4.00;;;2.10;;
75552;SDS011;64136;53.118;17.996;2023-06-26T00:05:31;4.60;;;2.50;;
75552;SDS011;64136;53.118;17.996;2023-06-26T00:07:58;4.20;;;2.50;;
75552;SDS011;64136;53.118;17.996;2023-06-26T00:10:26;4.50;;;2.90;;
75552;SDS011;64136;53.118;17.996;2023-06-26T00:12:53;4.60;;;2.60;;
75552;SDS011;64136;53.118;17.996;2023-06-26T00:15:19;5.90;;;2.90;;
75552;SDS011;64136;53.118;17.996;2023-06-26T00:17:45;3.30;;;2.30;;
75552;SDS011;64136;53.118;17.996;2023-06-26T00:20:11;4.20;;;2.20;;
75552;SDS011;64136;53.118;17.996;2023-06-26T00:22:38;2.80;;;2.30;;
75552;SDS011;64136;53.118;17.996;2023-06-26T00:25:09;4.00;;;2.50;;
75552;SDS011;64136;53.118;17.996;2023-06-26T00:27:35;3.20;;;2.60;;
75552;SDS011;64136;53.118;17.996;2023-06-26T00:30:01;3.60;;;2.50;;
75552;SDS011;64136;53.118;17.996;2023-06-26T00:32:26;4.00;;;2.70;;
75552;SDS011;64136;53.118;17.996;2023-06-26T00:34:52;5.30;;;3.20;;
75552;SDS011;64136;53.118;17.996;2023-06-26T00:37:18;4.20;;;3.20;;
75552;SDS011;64136;53.118;17.996;2023-06-26T00:39:44;4.70;;;3.10;;
75552;SDS011;64136;53.118;17.996;2023-06-26T00:42:10;3.40;;;2.70;;
75552;SDS011;64136;53.118;17.996;2023-06-26T00:44:37;4.70;;;2.30;;
75552;SDS011;64136;53.118;17.996;2023-06-26T00:47:03;3.50;;;2.90;;
75552;SDS011;64136;53.118;17.996;2023-06-26T00:49:29;3.70;;;2.70;;
75552;SDS011;64136;53.118;17.996;2023-06-26T00:51:55;4.80;;;3.00;;
75552;SDS011;64136;53.118;17.996;2023-06-26T00:54:22;4.10;;;3.20;;
75552;SDS011;64136;53.118;17.996;2023-06-26T00:56:48;3.80;;;2.50;;
75552;SDS011;64136;53.118;17.996;2023-06-26T00:59:14;4.10;;;3.00;;
75552;SDS011;64136;53.118;17.996;2023-06-26T01:01:40;4.30;;;2.60;;
75552;SDS011;64136;53.118;17.996;2023-06-26T01:04:08;3.90;;;2.60;;
75552;SDS011;64136;53.118;17.996;2023-06-26T01:06:46;4.40;;;3.40;;
75552;SDS011;64136;53.118;17.996;2023-06-26T01:09:16;4.10;;;2.60;;
75552;SDS011;64136;53.118;17.996;2023-06-26T01:11:43;3.90;;;3.10;;
75552;SDS011;64136;53.118;17.996;2023-06-26T01:14:10;5.40;;;3.40;;
75552;SDS011;64136;53.118;17.996;2023-06-26T01:16:37;4.90;;;3.40;;
75552;SDS011;64136;53.118;17.996;2023-06-26T01:19:06;6.00;;;3.50;;
75552;SDS011;64136;53.118;17.996;2023-06-26T01:21:37;4.10;;;3.10;;
75552;SDS011;64136;53.118;17.996;2023-06-26T01:24:09;4.80;;;3.10;;
75552;SDS011;64136;53.118;17.996;2023-06-26T01:26:48;4.70;;;3.20;;
75552;SDS011;64136;53.118;17.996;2023-06-26T01:29:16;4.20;;;3.00;;
75552;SDS011;64136;53.118;17.996;2023-06-26T01:34:14;4.90;;;3.30;;
75552;SDS011;64136;53.118;17.996;2023-06-26T01:36:42;3.90;;;3.00;;
75552;SDS011;64136;53.118;17.996;2023-06-26T01:39:09;5.40;;;3.60;;
75552;SDS011;64136;53.118;17.996;2023-06-26T01:41:35;5.00;;;3.10;;
75552;SDS011;64136;53.118;17.996;2023-06-26T01:44:11;5.20;;;3.40;;
75552;SDS011;64136;53.118;17.996;2023-06-26T01:46:53;4.70;;;3.20;;
75552;SDS011;64136;53.118;17.996;2023-06-26T01:52:14;6.30;;;3.80;;
75552;SDS011;64136;53.118;17.996;2023-06-26T01:57:52;5.30;;;3.40;;
75552;SDS011;64136;53.118;17.996;2023-06-26T02:00:22;4.80;;;3.10;;
75552;SDS011;64136;53.118;17.996;2023-06-26T02:02:50;4.30;;;2.90;;
75552;SDS011;64136;53.118;17.996;2023-06-26T02:05:15;5.20;;;3.20;;
75552;SDS011;64136;53.118;17.996;2023-06-26T02:07:42;6.00;;;3.60;;
75552;SDS011;64136;53.118;17.996;2023-06-26T02:10:09;4.00;;;2.80;;
75552;SDS011;64136;53.118;17.996;2023-06-26T02:12:35;5.00;;;3.60;;
75552;SDS011;64136;53.118;17.996;2023-06-26T02:15:02;6.80;;;3.90;;
75552;SDS011;64136;53.118;17.996;2023-06-26T02:17:45;4.90;;;3.30;;
75552;SDS011;64136;53.118;17.996;2023-06-26T02:20:14;4.90;;;3.40;;
75552;SDS011;64136;53.118;17.996;2023-06-26T02:22:41;6.30;;;4.00;;
75552;SDS011;64136;53.118;17.996;2023-06-26T02:25:11;3.80;;;3.00;;
75552;SDS011;64136;53.118;17.996;2023-06-26T02:27:38;4.10;;;3.30;;
75552;SDS011;64136;53.118;17.996;2023-06-26T02:30:04;5.70;;;4.00;;
75552;SDS011;64136;53.118;17.996;2023-06-26T02:32:31;6.40;;;4.00;;
75552;SDS011;64136;53.118;17.996;2023-06-26T02:34:56;5.20;;;3.70;;
75552;SDS011;64136;53.118;17.996;2023-06-26T02:37:22;5.70;;;3.90;;
75552;SDS011;64136;53.118;17.996;2023-06-26T02:39:48;5.70;;;3.60;;
75552;SDS011;64136;53.118;17.996;2023-06-26T02:42:14;5.80;;;4.00;;
75552;SDS011;64136;53.118;17.996;2023-06-26T02:44:40;6.30;;;3.80;;
75552;SDS011;64136;53.118;17.996;2023-06-26T02:47:06;5.80;;;3.60;;
75552;SDS011;64136;53.118;17.996;2023-06-26T02:49:33;5.90;;;4.30;;
75552;SDS011;64136;53.118;17.996;2023-06-26T02:51:58;5.80;;;3.70;;
75552;SDS011;64136;53.118;17.996;2023-06-26T02:54:27;4.80;;;3.60;;
75552;SDS011;64136;53.118;17.996;2023-06-26T02:56:55;5.60;;;3.80;;
75552;SDS011;64136;53.118;17.996;2023-06-26T02:59:25;7.40;;;3.90;;
75552;SDS011;64136;53.118;17.996;2023-06-26T03:01:51;6.80;;;3.80;;
75552;SDS011;64136;53.118;17.996;2023-06-26T03:04:18;7.30;;;4.20;;
75552;SDS011;64136;53.118;17.996;2023-06-26T03:06:43;5.70;;;3.70;;
75552;SDS011;64136;53.118;17.996;2023-06-26T03:09:09;5.10;;;3.70;;
75552;SDS011;64136;53.118;17.996;2023-06-26T03:11:35;7.00;;;3.90;;
75552;SDS011;64136;53.118;17.996;2023-06-26T03:14:01;4.80;;;4.10;;
75552;SDS011;64136;53.118;17.996;2023-06-26T03:16:27;4.90;;;3.20;;
75552;SDS011;64136;53.118;17.996;2023-06-26T03:18:53;4.80;;;3.20;;
75552;SDS011;64136;53.118;17.996;2023-06-26T03:21:19;6.50;;;4.20;;
75552;SDS011;64136;53.118;17.996;2023-06-26T03:23:45;5.70;;;3.70;;
75552;SDS011;64136;53.118;17.996;2023-06-26T03:26:11;6.90;;;4.10;;
75552;SDS011;64136;53.118;17.996;2023-06-26T03:28:40;5.60;;;3.40;;
75552;SDS011;64136;53.118;17.996;2023-06-26T03:31:07;5.10;;;3.80;;
75552;SDS011;64136;53.118;17.996;2023-06-26T03:33:33;7.10;;;4.10;;
75552;SDS011;64136;53.118;17.996;2023-06-26T03:35:59;6.60;;;5.00;;
75552;SDS011;64136;53.118;17.996;2023-06-26T03:38:25;6.20;;;3.90;;
75552;SDS011;64136;53.118;17.996;2023-06-26T03:40:52;6.40;;;4.00;;
75552;SDS011;64136;53.118;17.996;2023-06-26T03:43:18;5.70;;;3.50;;
75552;SDS011;64136;53.118;17.996;2023-06-26T03:45:56;5.00;;;4.00;;
75552;SDS011;64136;53.118;17.996;2023-06-26T03:48:21;6.20;;;4.60;;
75552;SDS011;64136;53.118;17.996;2023-06-26T03:50:47;7.50;;;4.50;;
75552;SDS011;64136;53.118;17.996;2023-06-26T03:53:13;6.80;;;4.20;;
75552;SDS011;64136;53.118;17.996;2023-06-26T03:55:40;5.60;;;4.10;;
75552;SDS011;64136;53.118;17.996;2023-06-26T03:58:05;6.10;;;3.90;;
75552;SDS011;64136;53.118;17.996;2023-06-26T04:00:31;6.10;;;3.90;;
75552;SDS011;64136;53.118;17.996;2023-06-26T04:02:57;6.40;;;4.30;;
75552;SDS011;64136;53.118;17.996;2023-06-26T04:05:23;6.60;;;4.50;;
75552;SDS011;64136;53.118;17.996;2023-06-26T04:07:52;3.40;;;2.60;;
75552;SDS011;64136;53.118;17.996;2023-06-26T04:10:18;6.70;;;4.40;;
75552;SDS011;64136;53.118;17.996;2023-06-26T04:12:47;8.80;;;4.50;;
75552;SDS011;64136;53.118;17.996;2023-06-26T04:15:13;6.70;;;4.10;;
75552;SDS011;64136;53.118;17.996;2023-06-26T04:17:39;7.80;;;5.50;;
75552;SDS011;64136;53.118;17.996;2023-06-26T04:20:05;9.90;;;4.90;;
75552;SDS011;64136;53.118;17.996;2023-06-26T04:22:32;7.10;;;4.70;;
75552;SDS011;64136;53.118;17.996;2023-06-26T04:25:01;8.40;;;4.80;;
75552;SDS011;64136;53.118;17.996;2023-06-26T04:27:28;6.10;;;4.60;;
75552;SDS011;64136;53.118;17.996;2023-06-26T04:29:54;7.30;;;4.60;;
75552;SDS011;64136;53.118;17.996;2023-06-26T04:32:20;6.70;;;4.40;;
75552;SDS011;64136;53.118;17.996;2023-06-26T04:34:45;6.00;;;4.50;;
75552;SDS011;64136;53.118;17.996;2023-06-26T04:37:13;9.20;;;4.80;;
75552;SDS011;64136;53.118;17.996;2023-06-26T04:39:42;7.50;;;5.40;;
75552;SDS011;64136;53.118;17.996;2023-06-26T04:42:08;6.50;;;4.70;;
75552;SDS011;64136;53.118;17.996;2023-06-26T04:44:35;7.50;;;4.80;;
75552;SDS011;64136;53.118;17.996;2023-06-26T04:47:03;4.80;;;3.40;;
75552;SDS011;64136;53.118;17.996;2023-06-26T04:49:29;7.30;;;5.00;;
75552;SDS011;64136;53.118;17.996;2023-06-26T04:51:55;7.00;;;4.60;;
75552;SDS011;64136;53.118;17.996;2023-06-26T04:54:21;7.00;;;4.50;;
75552;SDS011;64136;53.118;17.996;2023-06-26T04:56:48;5.80;;;4.00;;
75552;SDS011;64136;53.118;17.996;2023-06-26T04:59:13;5.10;;;4.20;;
75552;SDS011;64136;53.118;17.996;2023-06-26T05:01:40;6.40;;;4.60;;
75552;SDS011;64136;53.118;17.996;2023-06-26T05:04:09;5.00;;;3.70;;
75552;SDS011;64136;53.118;17.996;2023-06-26T05:06:35;7.10;;;4.60;;
75552;SDS011;64136;53.118;17.996;2023-06-26T05:09:00;6.90;;;5.00;;
75552;SDS011;64136;53.118;17.996;2023-06-26T05:11:26;7.90;;;4.90;;
75552;SDS011;64136;53.118;17.996;2023-06-26T05:13:52;6.20;;;4.90;;
75552;SDS011;64136;53.118;17.996;2023-06-26T05:16:18;7.90;;;4.40;;
75552;SDS011;64136;53.118;17.996;2023-06-26T05:18:44;7.20;;;4.20;;
75552;SDS011;64136;53.118;17.996;2023-06-26T05:21:10;5.50;;;4.20;;
75552;SDS011;64136;53.118;17.996;2023-06-26T05:23:36;5.60;;;3.70;;
75552;SDS011;64136;53.118;17.996;2023-06-26T05:26:02;5.60;;;3.80;;
75552;SDS011;64136;53.118;17.996;2023-06-26T05:28:29;5.90;;;4.10;;
75552;SDS011;64136;53.118;17.996;2023-06-26T05:30:59;6.00;;;4.20;;
75552;SDS011;64136;53.118;17.996;2023-06-26T05:33:26;8.40;;;4.30;;
75552;SDS011;64136;53.118;17.996;2023-06-26T05:35:52;5.60;;;3.90;;
75552;SDS011;64136;53.118;17.996;2023-06-26T05:38:19;6.00;;;4.50;;
75552;SDS011;64136;53.118;17.996;2023-06-26T05:40:46;6.20;;;4.00;;
75552;SDS011;64136;53.118;17.996;2023-06-26T05:43:12;5.20;;;4.10;;
75552;SDS011;64136;53.118;17.996;2023-06-26T05:45:38;6.20;;;4.70;;
75552;SDS011;64136;53.118;17.996;2023-06-26T05:48:04;7.00;;;4.00;;
75552;SDS011;64136;53.118;17.996;2023-06-26T05:50:30;5.40;;;3.90;;
75552;SDS011;64136;53.118;17.996;2023-06-26T05:52:56;6.80;;;4.10;;
75552;SDS011;64136;53.118;17.996;2023-06-26T05:55:22;4.50;;;3.40;;
75552;SDS011;64136;53.118;17.996;2023-06-26T05:57:49;6.20;;;3.70;;
75552;SDS011;64136;53.118;17.996;2023-06-26T06:00:17;5.30;;;4.20;;
75552;SDS011;64136;53.118;17.996;2023-06-26T06:02:43;5.00;;;3.20;;
75552;SDS011;64136;53.118;17.996;2023-06-26T06:05:09;4.80;;;3.90;;
75552;SDS011;64136;53.118;17.996;2023-06-26T06:07:35;5.00;;;3.90;;
75552;SDS011;64136;53.118;17.996;2023-06-26T06:10:02;5.20;;;3.30;;
75552;SDS011;64136;53.118;17.996;2023-06-26T06:12:29;5.70;;;4.40;;
75552;SDS011;64136;53.118;17.996;2023-06-26T06:14:55;6.80;;;4.60;;
75552;SDS011;64136;53.118;17.996;2023-06-26T06:17:21;5.30;;;4.00;;
75552;SDS011;64136;53.118;17.996;2023-06-26T06:19:48;7.10;;;4.60;;
75552;SDS011;64136;53.118;17.996;2023-06-26T06:22:15;5.90;;;4.10;;
75552;SDS011;64136;53.118;17.996;2023-06-26T06:28:45;5.90;;;4.40;;
75552;SDS011;64136;53.118;17.996;2023-06-26T06:31:11;5.10;;;3.90;;
75552;SDS011;64136;53.118;17.996;2023-06-26T06:33:37;7.30;;;4.70;;
75552;SDS011;64136;53.118;17.996;2023-06-26T06:36:03;4.40;;;3.50;;
75552;SDS011;64136;53.118;17.996;2023-06-26T06:38:30;5.40;;;4.20;;
75552;SDS011;64136;53.118;17.996;2023-06-26T06:40:58;7.90;;;5.60;;
75552;SDS011;64136;53.118;17.996;2023-06-26T06:43:39;4.90;;;4.00;;
75552;SDS011;64136;53.118;17.996;2023-06-26T06:46:08;6.90;;;4.50;;
75552;SDS011;64136;53.118;17.996;2023-06-26T06:48:34;5.80;;;4.70;;
75552;SDS011;64136;53.118;17.996;2023-06-26T06:51:00;5.70;;;3.90;;
75552;SDS011;64136;53.118;17.996;2023-06-26T06:53:27;4.60;;;3.50;;
75552;SDS011;64136;53.118;17.996;2023-06-26T06:55:52;5.30;;;4.00;;
75552;SDS011;64136;53.118;17.996;2023-06-26T06:58:18;8.30;;;4.80;;
75552;SDS011;64136;53.118;17.996;2023-06-26T07:00:45;4.90;;;4.30;;
75552;SDS011;64136;53.118;17.996;2023-06-26T07:03:11;7.90;;;5.30;;
75552;SDS011;64136;53.118;17.996;2023-06-26T07:05:37;5.60;;;4.40;;
75552;SDS011;64136;53.118;17.996;2023-06-26T07:08:03;6.00;;;4.20;;
75552;SDS011;64136;53.118;17.996;2023-06-26T07:10:29;7.20;;;4.30;;
75552;SDS011;64136;53.118;17.996;2023-06-26T07:12:56;7.40;;;5.10;;
75552;SDS011;64136;53.118;17.996;2023-06-26T07:15:22;5.70;;;4.40;;
75552;SDS011;64136;53.118;17.996;2023-06-26T07:17:48;5.00;;;4.10;;
75552;SDS011;64136;53.118;17.996;2023-06-26T07:20:14;6.50;;;4.70;;
75552;SDS011;64136;53.118;17.996;2023-06-26T07:22:42;7.10;;;4.00;;
75552;SDS011;64136;53.118;17.996;2023-06-26T07:25:10;5.50;;;4.10;;
75552;SDS011;64136;53.118;17.996;2023-06-26T07:27:38;5.00;;;3.60;;
75552;SDS011;64136;53.118;17.996;2023-06-26T07:30:04;6.00;;;4.70;;
75552;SDS011;64136;53.118;17.996;2023-06-26T07:32:30;8.00;;;4.90;;
75552;SDS011;64136;53.118;17.996;2023-06-26T07:34:56;7.90;;;4.50;;
75552;SDS011;64136;53.118;17.996;2023-06-26T07:37:22;9.60;;;4.90;;
75552;SDS011;64136;53.118;17.996;2023-06-26T07:39:49;6.40;;;4.50;;
75552;SDS011;64136;53.118;17.996;2023-06-26T07:42:15;7.90;;;5.70;;
75552;SDS011;64136;53.118;17.996;2023-06-26T07:44:41;7.60;;;5.20;;
75552;SDS011;64136;53.118;17.996;2023-06-26T07:47:08;5.70;;;4.80;;
75552;SDS011;64136;53.118;17.996;2023-06-26T07:49:33;6.00;;;4.60;;
75552;SDS011;64136;53.118;17.996;2023-06-26T07:51:59;6.30;;;4.50;;
75552;SDS011;64136;53.118;17.996;2023-06-26T07:54:25;4.70;;;4.00;;
75552;SDS011;64136;53.118;17.996;2023-06-26T07:59:33;6.00;;;4.70;;
75552;SDS011;64136;53.118;17.996;2023-06-26T08:01:58;5.80;;;3.60;;
75552;SDS011;64136;53.118;17.996;2023-06-26T08:04:26;7.50;;;4.10;;
75552;SDS011;64136;53.118;17.996;2023-06-26T08:06:54;4.40;;;3.80;;
75552;SDS011;64136;53.118;17.996;2023-06-26T08:09:22;8.20;;;4.00;;
75552;SDS011;64136;53.118;17.996;2023-06-26T08:11:49;6.10;;;4.20;;
75552;SDS011;64136;53.118;17.996;2023-06-26T08:14:15;5.80;;;3.80;;
75552;SDS011;64136;53.118;17.996;2023-06-26T08:16:42;5.70;;;4.20;;
75552;SDS011;64136;53.118;17.996;2023-06-26T08:19:10;4.70;;;3.90;;
75552;SDS011;64136;53.118;17.996;2023-06-26T08:21:36;4.70;;;3.60;;
75552;SDS011;64136;53.118;17.996;2023-06-26T08:24:02;4.50;;;3.50;;
75552;SDS011;64136;53.118;17.996;2023-06-26T08:26:28;5.80;;;3.40;;
75552;SDS011;64136;53.118;17.996;2023-06-26T08:28:54;4.40;;;3.70;;
75552;SDS011;64136;53.118;17.996;2023-06-26T08:31:20;5.00;;;3.30;;
75552;SDS011;64136;53.118;17.996;2023-06-26T08:33:49;5.00;;;3.80;;
75552;SDS011;64136;53.118;17.996;2023-06-26T08:36:15;6.00;;;4.20;;
75552;SDS011;64136;53.118;17.996;2023-06-26T08:38:41;5.90;;;4.30;;
75552;SDS011;64136;53.118;17.996;2023-06-26T08:41:07;5.00;;;3.60;;
75552;SDS011;64136;53.118;17.996;2023-06-26T08:43:34;4.90;;;4.00;;
75552;SDS011;64136;53.118;17.996;2023-06-26T08:48:29;5.80;;;4.20;;
75552;SDS011;64136;53.118;17.996;2023-06-26T08:51:00;6.70;;;4.30;;
75552;SDS011;64136;53.118;17.996;2023-06-26T08:56:15;4.00;;;3.20;;
75552;SDS011;64136;53.118;17.996;2023-06-26T08:58:43;3.30;;;3.00;;
75552;SDS011;64136;53.118;17.996;2023-06-26T09:01:10;3.50;;;3.10;;
75552;SDS011;64136;53.118;17.996;2023-06-26T09:03:37;4.10;;;2.70;;
75552;SDS011;64136;53.118;17.996;2023-06-26T09:06:03;3.70;;;2.90;;
75552;SDS011;64136;53.118;17.996;2023-06-26T09:08:28;3.90;;;3.00;;
75552;SDS011;64136;53.118;17.996;2023-06-26T09:10:55;5.30;;;3.50;;
75552;SDS011;64136;53.118;17.996;2023-06-26T09:13:21;6.10;;;3.40;;
75552;SDS011;64136;53.118;17.996;2023-06-26T09:15:47;3.20;;;2.90;;
75552;SDS011;64136;53.118;17.996;2023-06-26T09:18:13;4.40;;;3.50;;
75552;SDS011;64136;53.118;17.996;2023-06-26T09:20:42;4.80;;;3.50;;
75552;SDS011;64136;53.118;17.996;2023-06-26T09:23:08;6.10;;;3.40;;
75552;SDS011;64136;53.118;17.996;2023-06-26T09:25:37;5.30;;;3.20;;
75552;SDS011;64136;53.118;17.996;2023-06-26T09:28:05;5.60;;;2.80;;
75552;SDS011;64136;53.118;17.996;2023-06-26T09:30:34;4.00;;;3.60;;
75552;SDS011;64136;53.118;17.996;2023-06-26T09:35:41;4.70;;;3.80;;
75552;SDS011;64136;53.118;17.996;2023-06-26T09:38:07;2.60;;;2.40;;
75552;SDS011;64136;53.118;17.996;2023-06-26T09:40:33;4.70;;;3.90;;
75552;SDS011;64136;53.118;17.996;2023-06-26T09:43:04;6.10;;;3.30;;
75552;SDS011;64136;53.118;17.996;2023-06-26T09:45:35;3.80;;;3.40;;
75552;SDS011;64136;53.118;17.996;2023-06-26T09:50:32;3.90;;;3.20;;
75552;SDS011;64136;53.118;17.996;2023-06-26T09:55:39;6.10;;;3.50;;
75552;SDS011;64136;53.118;17.996;2023-06-26T09:58:11;5.90;;;3.40;;
75552;SDS011;64136;53.118;17.996;2023-06-26T10:00:41;4.50;;;3.00;;
75552;SDS011;64136;53.118;17.996;2023-06-26T10:03:27;4.20;;;3.60;;
75552;SDS011;64136;53.118;17.996;2023-06-26T10:05:53;4.70;;;3.50;;
75552;SDS011;64136;53.118;17.996;2023-06-26T10:08:20;5.00;;;3.10;;
75552;SDS011;64136;53.118;17.996;2023-06-26T10:10:46;4.60;;;3.50;;
75552;SDS011;64136;53.118;17.996;2023-06-26T10:13:21;4.20;;;3.00;;
75552;SDS011;64136;53.118;17.996;2023-06-26T10:15:51;3.50;;;3.10;;
75552;SDS011;64136;53.118;17.996;2023-06-26T10:18:17;4.60;;;3.80;;
75552;SDS011;64136;53.118;17.996;2023-06-26T10:20:46;4.40;;;3.60;;
75552;SDS011;64136;53.118;17.996;2023-06-26T10:23:14;4.10;;;3.60;;
75552;SDS011;64136;53.118;17.996;2023-06-26T10:25:44;3.40;;;3.10;;
75552;SDS011;64136;53.118;17.996;2023-06-26T10:28:14;5.30;;;3.50;;
75552;SDS011;64136;53.118;17.996;2023-06-26T10:30:42;4.00;;;3.40;;
75552;SDS011;64136;53.118;17.996;2023-06-26T10:33:10;4.80;;;3.70;;
75552;SDS011;64136;53.118;17.996;2023-06-26T10:35:42;4.20;;;3.50;;
75552;SDS011;64136;53.118;17.996;2023-06-26T10:38:10;5.50;;;4.60;;
75552;SDS011;64136;53.118;17.996;2023-06-26T10:40:41;5.20;;;4.20;;
75552;SDS011;64136;53.118;17.996;2023-06-26T10:43:09;5.20;;;3.60;;
75552;SDS011;64136;53.118;17.996;2023-06-26T10:45:36;5.00;;;4.10;;
75552;SDS011;64136;53.118;17.996;2023-06-26T10:48:03;5.50;;;4.70;;
75552;SDS011;64136;53.118;17.996;2023-06-26T10:50:31;5.80;;;3.80;;
75552;SDS011;64136;53.118;17.996;2023-06-26T10:55:43;5.80;;;3.40;;
75552;SDS011;64136;53.118;17.996;2023-06-26T11:06:17;5.30;;;4.40;;
75552;SDS011;64136;53.118;17.996;2023-06-26T11:08:47;4.80;;;4.00;;
75552;SDS011;64136;53.118;17.996;2023-06-26T11:11:14;5.20;;;4.20;;
75552;SDS011;64136;53.118;17.996;2023-06-26T11:13:42;6.50;;;4.20;;
75552;SDS011;64136;53.118;17.996;2023-06-26T11:16:08;5.70;;;4.10;;
75552;SDS011;64136;53.118;17.996;2023-06-26T11:18:34;5.00;;;4.00;;
75552;SDS011;64136;53.118;17.996;2023-06-26T11:21:05;4.60;;;3.80;;
75552;SDS011;64136;53.118;17.996;2023-06-26T11:23:32;7.60;;;3.90;;
75552;SDS011;64136;53.118;17.996;2023-06-26T11:28:45;5.20;;;3.40;;
75552;SDS011;64136;53.118;17.996;2023-06-26T11:33:56;5.60;;;4.20;;
75552;SDS011;64136;53.118;17.996;2023-06-26T11:36:24;4.10;;;3.60;;
75552;SDS011;64136;53.118;17.996;2023-06-26T11:38:58;4.40;;;3.10;;
75552;SDS011;64136;53.118;17.996;2023-06-26T11:41:26;3.70;;;3.00;;
75552;SDS011;64136;53.118;17.996;2023-06-26T11:43:54;3.40;;;3.00;;
75552;SDS011;64136;53.118;17.996;2023-06-26T11:46:21;4.60;;;3.70;;
75552;SDS011;64136;53.118;17.996;2023-06-26T11:48:48;3.90;;;3.40;;
75552;SDS011;64136;53.118;17.996;2023-06-26T11:51:15;6.20;;;3.00;;
75552;SDS011;64136;53.118;17.996;2023-06-26T11:53:42;4.80;;;3.30;;
75552;SDS011;64136;53.118;17.996;2023-06-26T11:56:10;3.60;;;3.30;;
75552;SDS011;64136;53.118;17.996;2023-06-26T12:01:33;4.40;;;3.50;;
75552;SDS011;64136;53.118;17.996;2023-06-26T12:04:05;3.00;;;2.70;;
75552;SDS011;64136;53.118;17.996;2023-06-26T12:06:39;4.20;;;2.70;;
75552;SDS011;64136;53.118;17.996;2023-06-26T12:09:08;5.60;;;3.20;;
75552;SDS011;64136;53.118;17.996;2023-06-26T12:11:37;3.90;;;3.20;;
75552;SDS011;64136;53.118;17.996;2023-06-26T12:14:05;5.60;;;3.80;;
75552;SDS011;64136;53.118;17.996;2023-06-26T12:16:33;4.00;;;3.30;;
75552;SDS011;64136;53.118;17.996;2023-06-26T12:19:04;3.60;;;3.20;;
75552;SDS011;64136;53.118;17.996;2023-06-26T12:21:46;4.90;;;3.60;;
75552;SDS011;64136;53.118;17.996;2023-06-26T12:24:18;4.50;;;3.50;;
75552;SDS011;64136;53.118;17.996;2023-06-26T12:26:48;3.70;;;3.30;;
75552;SDS011;64136;53.118;17.996;2023-06-26T12:29:18;3.30;;;3.00;;
75552;SDS011;64136;53.118;17.996;2023-06-26T12:31:49;4.40;;;3.60;;
75552;SDS011;64136;53.118;17.996;2023-06-26T12:34:25;3.90;;;3.40;;
75552;SDS011;64136;53.118;17.996;2023-06-26T12:36:53;4.50;;;3.40;;
75552;SDS011;64136;53.118;17.996;2023-06-26T12:39:20;4.80;;;3.30;;
75552;SDS011;64136;53.118;17.996;2023-06-26T12:41:47;3.10;;;2.80;;
75552;SDS011;64136;53.118;17.996;2023-06-26T12:44:18;4.30;;;3.20;;
75552;SDS011;64136;53.118;17.996;2023-06-26T12:46:47;3.10;;;2.60;;
75552;SDS011;64136;53.118;17.996;2023-06-26T12:49:19;3.60;;;3.10;;
75552;SDS011;64136;53.118;17.996;2023-06-26T12:51:46;5.70;;;3.40;;
75552;SDS011;64136;53.118;17.996;2023-06-26T12:54:12;4.30;;;3.10;;
75552;SDS011;64136;53.118;17.996;2023-06-26T12:56:38;7.20;;;3.30;;
75552;SDS011;64136;53.118;17.996;2023-06-26T12:59:04;4.10;;;3.20;;
75552;SDS011;64136;53.118;17.996;2023-06-26T13:01:30;4.10;;;2.60;;
75552;SDS011;64136;53.118;17.996;2023-06-26T13:03:56;4.40;;;3.00;;
75552;SDS011;64136;53.118;17.996;2023-06-26T13:06:22;3.70;;;3.30;;
75552;SDS011;64136;53.118;17.996;2023-06-26T13:08:49;4.80;;;3.50;;
75552;SDS011;64136;53.118;17.996;2023-06-26T13:11:15;2.40;;;2.20;;
75552;SDS011;64136;53.118;17.996;2023-06-26T13:13:42;3.10;;;2.80;;
75552;SDS011;64136;53.118;17.996;2023-06-26T13:16:09;3.10;;;2.70;;
75552;SDS011;64136;53.118;17.996;2023-06-26T13:18:35;2.80;;;2.50;;
75552;SDS011;64136;53.118;17.996;2023-06-26T13:21:01;4.20;;;2.80;;
75552;SDS011;64136;53.118;17.996;2023-06-26T13:23:27;3.10;;;2.80;;
75552;SDS011;64136;53.118;17.996;2023-06-26T13:25:53;3.30;;;2.90;;
75552;SDS011;64136;53.118;17.996;2023-06-26T13:28:20;6.20;;;3.60;;
75552;SDS011;64136;53.118;17.996;2023-06-26T13:30:46;3.80;;;3.20;;
75552;SDS011;64136;53.118;17.996;2023-06-26T13:33:12;3.70;;;3.10;;
75552;SDS011;64136;53.118;17.996;2023-06-26T13:35:38;3.20;;;2.90;;
75552;SDS011;64136;53.118;17.996;2023-06-26T13:38:04;3.30;;;2.80;;
75552;SDS011;64136;53.118;17.996;2023-06-26T13:40:30;5.80;;;3.60;;
75552;SDS011;64136;53.118;17.996;2023-06-26T13:42:56;3.40;;;2.90;;
75552;SDS011;64136;53.118;17.996;2023-06-26T13:45:22;4.50;;;3.10;;
75552;SDS011;64136;53.118;17.996;2023-06-26T13:47:48;3.10;;;2.80;;
75552;SDS011;64136;53.118;17.996;2023-06-26T13:50:15;3.40;;;3.10;;
75552;SDS011;64136;53.118;17.996;2023-06-26T13:55:07;3.30;;;3.10;;
75552;SDS011;64136;53.118;17.996;2023-06-26T13:57:34;5.20;;;3.20;;
75552;SDS011;64136;53.118;17.996;2023-06-26T14:00:00;3.30;;;3.10;;
75552;SDS011;64136;53.118;17.996;2023-06-26T14:02:38;3.30;;;3.00;;
75552;SDS011;64136;53.118;17.996;2023-06-26T14:05:04;3.00;;;2.80;;
75552;SDS011;64136;53.118;17.996;2023-06-26T14:07:31;3.50;;;3.10;;
75552;SDS011;64136;53.118;17.996;2023-06-26T14:09:57;3.20;;;3.00;;
75552;SDS011;64136;53.118;17.996;2023-06-26T14:12:23;3.60;;;3.20;;
75552;SDS011;64136;53.118;17.996;2023-06-26T14:14:51;3.10;;;2.80;;
75552;SDS011;64136;53.118;17.996;2023-06-26T14:17:17;2.70;;;2.40;;
75552;SDS011;64136;53.118;17.996;2023-06-26T14:19:43;2.90;;;2.70;;
75552;SDS011;64136;53.118;17.996;2023-06-26T14:22:09;3.60;;;3.30;;
75552;SDS011;64136;53.118;17.996;2023-06-26T14:24:35;2.50;;;2.30;;
75552;SDS011;64136;53.118;17.996;2023-06-26T14:27:02;2.60;;;2.40;;
75552;SDS011;64136;53.118;17.996;2023-06-26T14:31:55;3.10;;;2.80;;
75552;SDS011;64136;53.118;17.996;2023-06-26T14:34:21;3.40;;;3.10;;
75552;SDS011;64136;53.118;17.996;2023-06-26T14:39:14;3.60;;;3.30;;
75552;SDS011;64136;53.118;17.996;2023-06-26T14:44:07;2.70;;;2.50;;
75552;SDS011;64136;53.118;17.996;2023-06-26T14:46:35;2.70;;;2.50;;
75552;SDS011;64136;53.118;17.996;2023-06-26T14:49:02;2.80;;;2.60;;
75552;SDS011;64136;53.118;17.996;2023-06-26T14:51:29;3.30;;;3.00;;
75552;SDS011;64136;53.118;17.996;2023-06-26T14:53:55;2.60;;;2.40;;
75552;SDS011;64136;53.118;17.996;2023-06-26T14:58:47;4.30;;;2.90;;
75552;SDS011;64136;53.118;17.996;2023-06-26T15:01:13;3.00;;;2.60;;
75552;SDS011;64136;53.118;17.996;2023-06-26T15:03:41;2.40;;;2.30;;
75552;SDS011;64136;53.118;17.996;2023-06-26T15:08:34;2.70;;;2.40;;
75552;SDS011;64136;53.118;17.996;2023-06-26T15:11:01;2.70;;;2.50;;
75552;SDS011;64136;53.118;17.996;2023-06-26T15:13:28;2.90;;;2.70;;
75552;SDS011;64136;53.118;17.996;2023-06-26T15:15:55;2.80;;;2.60;;
75552;SDS011;64136;53.118;17.996;2023-06-26T15:20:47;2.50;;;2.20;;
75552;SDS011;64136;53.118;17.996;2023-06-26T15:23:13;3.20;;;2.90;;
75552;SDS011;64136;53.118;17.996;2023-06-26T15:25:39;3.00;;;2.30;;
75552;SDS011;64136;53.118;17.996;2023-06-26T15:28:06;2.70;;;2.50;;
75552;SDS011;64136;53.118;17.996;2023-06-26T15:30:32;3.10;;;2.80;;
75552;SDS011;64136;53.118;17.996;2023-06-26T15:32:59;2.80;;;2.30;;
75552;SDS011;64136;53.118;17.996;2023-06-26T15:35:25;2.50;;;2.10;;
75552;SDS011;64136;53.118;17.996;2023-06-26T15:37:52;2.20;;;2.10;;
75552;SDS011;64136;53.118;17.996;2023-06-26T15:40:18;3.20;;;2.80;;